Time;durP1;ratioP1;P1;durP2;ratioP2;P2;SDS_P1;SDS_P2;PMS_P1;PMS_P2;Temp;Humidity;BMP_temperature;BMP_pressure;BME280_temperature;BME280_humidity;BME280_pressure;Samples;Min_cycle;Max_cycle;Signal;HPM_P1;HPM_P2
2022/11/02 00:00:26;;;;;;;2.27;1.53;;;8.60;98.00;;;;;;5072310;28;20954;-71
2022/11/02 00:02:53;;;;;;;2.53;1.50;;;8.60;98.00;;;;;;5071979;28;20800;-71
2022/11/02 00:05:23;;;;;;;1.87;1.40;;;8.70;98.00;;;;;;5072164;28;20498;-71
2022/11/02 00:07:51;;;;;;;2.53;2.13;;;8.70;98.00;;;;;;5071934;28;20489;-71
2022/11/02 00:10:19;;;;;;;1.93;1.83;;;8.70;98.00;;;;;;5070784;28;20555;-71
2022/11/02 00:12:46;;;;;;;2.87;2.57;;;8.70;98.00;;;;;;5072001;28;20460;-71
2022/11/02 00:15:13;;;;;;;2.93;1.90;;;8.50;98.00;;;;;;5070665;28;20465;-71
2022/11/02 00:17:43;;;;;;;2.80;1.60;;;8.50;98.00;;;;;;5072003;28;20477;-71
2022/11/02 00:20:14;;;;;;;3.43;1.93;;;8.70;98.00;;;;;;5070870;28;20527;-71
2022/11/02 00:22:45;;;;;;;1.90;1.37;;;8.90;98.00;;;;;;5072009;28;20541;-71
2022/11/02 00:25:16;;;;;;;2.60;1.60;;;8.80;98.00;;;;;;5072077;28;20453;-71
2022/11/02 00:27:44;;;;;;;1.90;1.63;;;8.70;98.00;;;;;;5071932;28;20480;-72
2022/11/02 00:30:12;;;;;;;2.83;1.97;;;8.70;98.00;;;;;;5072090;28;20795;-71
2022/11/02 00:32:39;;;;;;;3.53;1.73;;;8.60;98.00;;;;;;5071828;28;20453;-71
2022/11/02 00:35:07;;;;;;;1.70;1.63;;;8.70;98.00;;;;;;5070915;28;20459;-71
2022/11/02 00:37:34;;;;;;;2.50;2.00;;;8.50;98.00;;;;;;5072057;28;20463;-71
2022/11/02 00:40:03;;;;;;;2.17;1.60;;;8.40;98.00;;;;;;5070774;28;20504;-71
2022/11/02 00:42:31;;;;;;;2.13;1.63;;;8.50;98.00;;;;;;5071665;28;20452;-71
2022/11/02 00:44:58;;;;;;;2.70;1.53;;;8.30;98.00;;;;;;5070328;28;20468;-71
2022/11/02 00:47:25;;;;;;;2.47;1.90;;;8.30;98.00;;;;;;5070067;28;20490;-71
2022/11/02 00:49:52;;;;;;;5.03;2.00;;;8.00;98.00;;;;;;5071513;28;20459;-71
2022/11/02 00:52:19;;;;;;;1.70;1.50;;;8.10;98.00;;;;;;5070022;28;20464;-71
2022/11/02 00:54:46;;;;;;;3.57;1.70;;;8.20;98.00;;;;;;5071209;28;20483;-71
2022/11/02 00:57:15;;;;;;;2.13;1.83;;;8.20;98.00;;;;;;5070128;28;21012;-71
2022/11/02 00:59:43;;;;;;;3.13;1.90;;;8.20;98.00;;;;;;5070545;28;20463;-71
2022/11/02 01:02:10;;;;;;;2.67;2.00;;;8.10;98.00;;;;;;5070384;28;20457;-71
2022/11/02 01:04:37;;;;;;;2.60;1.60;;;8.10;98.00;;;;;;5075309;28;20450;-71
2022/11/02 01:07:04;;;;;;;1.83;1.80;;;8.30;98.00;;;;;;5075455;28;20480;-71
2022/11/02 01:09:32;;;;;;;2.10;1.67;;;8.20;98.00;;;;;;5075338;28;20452;-71
2022/11/02 01:11:59;;;;;;;3.10;1.83;;;8.10;98.00;;;;;;5075328;28;20487;-71
2022/11/02 01:14:28;;;;;;;2.47;1.80;;;8.10;98.00;;;;;;5075334;28;20830;-71
2022/11/02 01:16:56;;;;;;;3.43;1.90;;;7.90;98.00;;;;;;5075252;28;20470;-72
2022/11/02 01:19:24;;;;;;;7.70;2.43;;;7.80;98.00;;;;;;5075075;28;20460;-71
2022/11/02 01:21:51;;;;;;;4.93;1.57;;;7.80;98.00;;;;;;5074832;28;20866;-71
2022/11/02 01:24:21;;;;;;;2.20;1.93;;;7.90;98.00;;;;;;5074958;28;20457;-71
2022/11/02 01:26:51;;;;;;;2.70;1.50;;;8.10;98.00;;;;;;5074042;28;20906;-71
2022/11/02 01:29:18;;;;;;;3.20;1.60;;;8.10;98.00;;;;;;5074864;28;20548;-71
2022/11/02 01:31:47;;;;;;;2.60;1.90;;;8.20;98.00;;;;;;5074036;28;20841;-71
2022/11/02 01:34:15;;;;;;;2.87;2.00;;;8.10;98.00;;;;;;5074893;28;20457;-72
2022/11/02 01:36:44;;;;;;;1.90;1.30;;;7.90;98.00;;;;;;5073858;28;20460;-71
2022/11/02 01:39:11;;;;;;;3.50;1.70;;;7.90;98.00;;;;;;5074761;28;20460;-71
2022/11/02 01:41:40;;;;;;;3.00;1.77;;;7.80;98.00;;;;;;5074858;28;20836;-71
2022/11/02 01:44:27;;;;;;;2.93;1.63;;;7.70;98.00;;;;;;5074467;28;20460;-71
2022/11/02 01:46:59;;;;;;;2.17;1.70;;;7.60;98.00;;;;;;5074679;28;20486;-71
2022/11/02 01:49:27;;;;;;;2.03;1.23;;;7.70;98.00;;;;;;5074484;28;20885;-71
2022/11/02 01:51:58;;;;;;;2.20;1.20;;;7.90;98.00;;;;;;5074604;28;20550;-71
2022/11/02 01:54:29;;;;;;;2.13;1.77;;;7.90;98.00;;;;;;5074436;28;20930;-71
2022/11/02 01:57:02;;;;;;;2.87;1.77;;;7.80;98.00;;;;;;5073360;28;20466;-71
2022/11/02 01:59:33;;;;;;;2.50;1.60;;;7.80;98.00;;;;;;5073316;28;20459;-71
2022/11/02 02:02:05;;;;;;;1.40;1.20;;;7.70;98.00;;;;;;5074666;28;20464;-71
2022/11/02 02:04:35;;;;;;;1.80;1.40;;;7.70;98.00;;;;;;5074563;28;20944;-71
2022/11/02 02:07:02;;;;;;;3.13;1.57;;;7.60;98.00;;;;;;5074322;28;20487;-71
2022/11/02 02:09:30;;;;;;;1.93;1.50;;;7.70;98.00;;;;;;5073158;28;20865;-71
2022/11/02 02:11:57;;;;;;;3.07;1.83;;;7.80;98.00;;;;;;5074310;28;20487;-70
2022/11/02 02:14:24;;;;;;;4.10;2.10;;;7.90;98.00;;;;;;5074009;28;20456;-71
2022/11/02 02:17:06;;;;;;;1.53;1.50;;;7.80;98.00;;;;;;5074330;28;21007;-71
2022/11/02 02:19:40;;;;;;;2.80;1.60;;;7.70;98.00;;;;;;5074106;28;20464;-71
2022/11/02 02:22:34;;;;;;;2.07;1.60;;;7.70;98.00;;;;;;5073938;28;20479;-71
2022/11/02 02:25:13;;;;;;;1.90;1.50;;;7.40;98.00;;;;;;5074370;28;20457;-71
2022/11/02 02:27:55;;;;;;;5.53;2.63;;;7.40;98.00;;;;;;5073984;28;20489;-71
2022/11/02 02:30:23;;;;;;;2.53;1.50;;;7.50;98.00;;;;;;5074043;28;20462;-71
2022/11/02 02:32:58;;;;;;;2.50;1.37;;;7.50;98.00;;;;;;5073647;28;20622;-71
2022/11/02 02:35:32;;;;;;;1.90;1.33;;;7.70;98.00;;;;;;5073899;28;20454;-71
2022/11/02 02:38:02;;;;;;;1.50;1.30;;;7.80;98.00;;;;;;5073642;28;20454;-71
2022/11/02 02:40:35;;;;;;;2.43;1.60;;;7.80;98.00;;;;;;5072538;28;20455;-71
2022/11/02 02:43:10;;;;;;;1.93;1.73;;;7.80;98.00;;;;;;5072189;28;20468;-71
2022/11/02 02:45:39;;;;;;;1.53;1.30;;;7.70;98.00;;;;;;5073456;28;20490;-70
2022/11/02 02:48:12;;;;;;;1.83;1.53;;;7.70;98.00;;;;;;5072167;28;20578;-71
2022/11/02 02:50:44;;;;;;;2.07;1.40;;;7.60;98.00;;;;;;5073472;28;20464;-71
2022/11/02 02:53:13;;;;;;;1.77;1.67;;;7.50;98.00;;;;;;5073377;28;20536;-71
2022/11/02 02:55:44;;;;;;;2.17;1.67;;;7.40;98.00;;;;;;5073359;28;20463;-71
2022/11/02 02:58:18;;;;;;;2.93;1.57;;;7.60;98.00;;;;;;5073149;28;20495;-71
2022/11/02 03:00:48;;;;;;;2.70;1.97;;;7.70;98.00;;;;;;5072172;28;20454;-71
2022/11/02 03:03:20;;;;;;;1.90;1.37;;;7.80;98.00;;;;;;5073312;28;20461;-71
2022/11/02 03:06:05;;;;;;;1.80;1.70;;;7.70;98.00;;;;;;5073283;28;20455;-71
2022/11/02 03:08:36;;;;;;;1.53;1.50;;;7.70;98.00;;;;;;5073123;28;20490;-70
2022/11/02 03:11:12;;;;;;;2.33;1.50;;;7.70;98.00;;;;;;5073409;28;20451;-71
2022/11/02 03:13:51;;;;;;;2.43;1.70;;;7.70;98.00;;;;;;5071967;28;20538;-71
2022/11/02 03:16:36;;;;;;;4.00;1.50;;;7.60;98.00;;;;;;5073108;28;20471;-71
2022/11/02 03:19:13;;;;;;;1.63;1.30;;;7.60;98.00;;;;;;5073139;28;20455;-71
2022/11/02 03:21:42;;;;;;;2.77;1.40;;;7.60;98.00;;;;;;5073202;28;20459;-71
2022/11/02 03:24:16;;;;;;;3.03;2.37;;;7.70;98.00;;;;;;5073113;28;20782;-71
2022/11/02 03:26:48;;;;;;;3.20;1.23;;;7.80;98.00;;;;;;5071990;28;20467;-71
2022/11/02 03:29:21;;;;;;;2.47;1.47;;;7.90;98.00;;;;;;5072705;28;20856;-71
2022/11/02 03:31:56;;;;;;;2.63;1.60;;;7.80;98.00;;;;;;5072556;28;21020;-71
2022/11/02 03:34:28;;;;;;;1.90;1.57;;;7.70;98.00;;;;;;5072549;28;20462;-71
2022/11/02 03:37:00;;;;;;;2.43;1.40;;;7.60;98.00;;;;;;5072539;28;20486;-71
2022/11/02 03:39:33;;;;;;;1.40;1.40;;;7.60;98.00;;;;;;5072379;28;20459;-71
2022/11/02 03:42:03;;;;;;;4.30;1.80;;;7.60;98.00;;;;;;5072369;28;21028;-71
2022/11/02 03:44:38;;;;;;;1.30;1.20;;;7.50;98.00;;;;;;5072259;28;20550;-70
2022/11/02 03:47:08;;;;;;;2.00;1.53;;;7.60;98.00;;;;;;5072491;28;20478;-71
2022/11/02 03:49:37;;;;;;;1.53;1.47;;;7.60;98.00;;;;;;5072162;28;21001;-71
2022/11/02 03:52:08;;;;;;;2.17;1.50;;;7.50;98.00;;;;;;5072366;28;20958;-71
2022/11/02 03:54:43;;;;;;;1.80;1.37;;;7.60;98.00;;;;;;5072276;28;20520;-71
2022/11/02 03:57:18;;;;;;;2.00;1.57;;;7.60;98.00;;;;;;5072262;28;20977;-71
2022/11/02 03:59:47;;;;;;;2.80;1.40;;;7.70;98.00;;;;;;5072348;28;20465;-71
2022/11/02 04:02:15;;;;;;;1.50;1.40;;;7.70;98.00;;;;;;5072438;28;20455;-71
2022/11/02 04:04:51;;;;;;;2.23;1.37;;;7.80;98.00;;;;;;5071093;28;20508;-71
2022/11/02 04:07:23;;;;;;;6.90;2.07;;;7.90;98.00;;;;;;5072229;28;20471;-71
2022/11/02 04:09:50;;;;;;;1.93;1.43;;;7.90;98.00;;;;;;5072379;28;20457;-71
2022/11/02 04:15:04;;;;;;;2.70;1.73;;;7.90;98.00;;;;;;5072311;28;20444;-71
2022/11/02 04:20:15;;;;;;;1.53;1.30;;;8.00;98.00;;;;;;5071962;28;20468;-70
2022/11/02 04:25:27;;;;;;;1.87;1.40;;;8.00;98.00;;;;;;5071876;28;20488;-71
2022/11/02 04:27:54;;;;;;;2.07;1.40;;;8.00;98.00;;;;;;5071844;28;20488;-71
2022/11/02 04:30:23;;;;;;;2.00;1.30;;;8.00;98.00;;;;;;5071751;28;20463;-71
2022/11/02 04:35:37;;;;;;;1.90;1.30;;;7.80;98.00;;;;;;5071769;28;20446;-71
2022/11/02 04:41:40;;;;;;;4.83;2.10;;;7.80;98.00;;;;;;5074992;28;20493;-71
2022/11/02 04:43:37;;;;;;;1.50;1.37;;;7.70;98.00;;;;;;5075576;28;20442;-71
2022/11/02 04:46:05;;;;;;;1.87;1.57;;;7.70;98.00;;;;;;5074670;28;20459;-70
2022/11/02 04:48:33;;;;;;;1.40;1.30;;;7.90;98.00;;;;;;5075646;28;20488;-71
2022/11/02 04:51:00;;;;;;;1.77;1.60;;;7.90;98.00;;;;;;5075902;28;20522;-70
2022/11/02 04:53:27;;;;;;;1.40;1.27;;;7.90;98.00;;;;;;5075737;28;20817;-71
2022/11/02 04:55:54;;;;;;;1.40;1.20;;;7.90;98.00;;;;;;5074755;28;20451;-71
2022/11/02 04:58:21;;;;;;;2.03;1.30;;;7.90;98.00;;;;;;5075409;28;20458;-71
2022/11/02 05:00:49;;;;;;;1.47;1.17;;;7.90;98.00;;;;;;5075672;28;20455;-71
2022/11/02 05:03:18;;;;;;;2.23;1.70;;;7.80;98.00;;;;;;5075565;28;20452;-71
2022/11/02 05:05:47;;;;;;;2.10;1.60;;;7.70;98.00;;;;;;5075752;28;20457;-71
2022/11/02 05:08:14;;;;;;;2.13;1.30;;;7.70;98.00;;;;;;5075755;28;20480;-71
2022/11/02 05:10:41;;;;;;;3.00;2.00;;;7.70;98.00;;;;;;5075556;28;20859;-71
2022/11/02 05:13:10;;;;;;;2.97;1.50;;;7.80;98.00;;;;;;5075277;28;20459;-71
2022/11/02 05:15:39;;;;;;;1.30;1.30;;;7.60;98.00;;;;;;5075271;28;20518;-71
2022/11/02 05:18:06;;;;;;;1.40;1.37;;;7.80;98.00;;;;;;5075303;28;20456;-71
2022/11/02 05:20:35;;;;;;;1.40;1.07;;;7.80;98.00;;;;;;5074871;28;20451;-71
2022/11/02 05:23:02;;;;;;;1.50;1.30;;;7.80;98.00;;;;;;5075118;28;20456;-71
2022/11/02 05:25:30;;;;;;;1.93;1.40;;;7.80;98.00;;;;;;5074870;28;20456;-71
2022/11/02 05:27:57;;;;;;;1.70;1.67;;;7.80;98.00;;;;;;5075119;28;20988;-71
2022/11/02 05:30:24;;;;;;;1.63;1.60;;;7.70;98.00;;;;;;5074814;28;20548;-71
2022/11/02 05:32:55;;;;;;;2.67;1.37;;;7.60;98.00;;;;;;5075045;28;20455;-71
2022/11/02 05:35:30;;;;;;;1.60;1.43;;;7.50;98.00;;;;;;5073774;28;20812;-71
2022/11/02 05:37:59;;;;;;;1.50;1.37;;;7.40;98.00;;;;;;5074557;28;20457;-71
2022/11/02 05:40:26;;;;;;;3.87;1.27;;;7.30;98.00;;;;;;5074974;28;20455;-70
2022/11/02 05:43:00;;;;;;;2.20;1.63;;;7.30;98.00;;;;;;5074077;28;20945;-71
2022/11/02 05:45:27;;;;;;;6.53;1.60;;;7.30;98.00;;;;;;5074879;28;20492;-71
2022/11/02 05:47:54;;;;;;;2.27;1.50;;;7.40;98.00;;;;;;5074684;28;20511;-71
2022/11/02 05:50:22;;;;;;;3.60;2.00;;;7.40;98.00;;;;;;5074349;28;20460;-71
2022/11/02 05:52:49;;;;;;;2.83;1.80;;;7.50;98.00;;;;;;5074659;28;20993;-71
2022/11/02 05:55:19;;;;;;;2.37;1.87;;;7.50;98.00;;;;;;5074773;28;20969;-71
2022/11/02 05:57:53;;;;;;;4.20;2.63;;;7.60;98.00;;;;;;5074780;28;20462;-71
2022/11/02 06:00:21;;;;;;;1.90;1.80;;;7.70;98.00;;;;;;5074649;28;20497;-71
2022/11/02 06:02:49;;;;;;;3.30;1.80;;;7.80;98.00;;;;;;5074779;28;20831;-71
2022/11/02 06:05:16;;;;;;;6.40;1.87;;;7.70;98.00;;;;;;5074466;28;20820;-71
2022/11/02 06:07:43;;;;;;;3.17;2.13;;;7.60;98.00;;;;;;5072967;28;20522;-71
2022/11/02 06:10:10;;;;;;;2.63;1.87;;;7.60;98.00;;;;;;5074511;28;20454;-71
2022/11/02 06:12:39;;;;;;;3.20;1.73;;;7.60;98.00;;;;;;5073994;28;20464;-71
2022/11/02 06:15:07;;;;;;;3.20;1.60;;;7.70;98.00;;;;;;5074003;28;20456;-70
2022/11/02 06:17:38;;;;;;;1.50;1.40;;;7.80;98.00;;;;;;5073906;28;20472;-71
2022/11/02 06:20:08;;;;;;;1.57;1.40;;;7.80;98.00;;;;;;5073758;28;20456;-71
2022/11/02 06:22:39;;;;;;;3.90;1.87;;;7.70;98.00;;;;;;5072786;28;20537;-71
2022/11/02 06:25:08;;;;;;;2.50;2.10;;;7.70;98.00;;;;;;5073505;28;20551;-71
2022/11/02 06:27:35;;;;;;;2.50;1.60;;;7.80;98.00;;;;;;5073268;28;20508;-70
2022/11/02 06:30:05;;;;;;;1.87;1.83;;;7.80;98.00;;;;;;5073240;28;20487;-70
2022/11/02 06:32:32;;;;;;;2.40;1.57;;;7.80;98.00;;;;;;5073082;28;21010;-71
2022/11/02 06:34:59;;;;;;;1.83;1.57;;;7.70;98.00;;;;;;5072631;28;20455;-71
2022/11/02 06:37:27;;;;;;;3.77;1.57;;;7.70;98.00;;;;;;5073907;28;20472;-71
2022/11/02 06:39:54;;;;;;;1.87;1.70;;;7.70;98.00;;;;;;5073772;28;20463;-71
2022/11/02 06:42:21;;;;;;;1.50;1.50;;;7.90;98.00;;;;;;5073698;28;20465;-71
2022/11/02 06:44:48;;;;;;;2.57;1.73;;;7.90;98.00;;;;;;5072321;28;20463;-71
2022/11/02 06:47:17;;;;;;;3.03;1.87;;;8.00;98.00;;;;;;5073676;28;20453;-71
2022/11/02 06:49:44;;;;;;;2.80;1.80;;;8.00;98.00;;;;;;5073579;28;20487;-71
2022/11/02 06:52:11;;;;;;;2.40;1.50;;;8.00;98.00;;;;;;5073561;28;20461;-71
2022/11/02 06:54:38;;;;;;;1.43;1.30;;;8.00;98.00;;;;;;5072446;28;20464;-71
2022/11/02 06:57:05;;;;;;;2.90;1.93;;;8.10;98.00;;;;;;5073697;28;20457;-71
2022/11/02 06:59:32;;;;;;;2.70;1.73;;;8.10;98.00;;;;;;5073273;28;20470;-71
2022/11/02 07:02:00;;;;;;;1.57;1.50;;;8.20;98.00;;;;;;5070558;28;20498;-71
2022/11/02 07:04:28;;;;;;;2.03;1.47;;;8.30;98.00;;;;;;5073146;28;20478;-71
2022/11/02 07:06:55;;;;;;;3.57;1.60;;;8.50;98.00;;;;;;5073214;28;20470;-71
2022/11/02 07:09:22;;;;;;;1.90;1.70;;;8.60;98.00;;;;;;5072990;28;21002;-71
2022/11/02 07:11:50;;;;;;;1.63;1.50;;;8.50;98.00;;;;;;5073031;28;20460;-71
2022/11/02 07:14:17;;;;;;;2.00;1.47;;;8.50;98.00;;;;;;5072914;28;20460;-71
2022/11/02 07:16:44;;;;;;;2.87;1.63;;;8.50;98.00;;;;;;5072801;28;20512;-71
2022/11/02 07:19:11;;;;;;;2.13;1.20;;;8.50;98.00;;;;;;5072642;28;20451;-71
2022/11/02 07:21:40;;;;;;;1.70;1.40;;;8.50;98.00;;;;;;5072835;28;20448;-70
2022/11/02 07:24:07;;;;;;;3.17;1.30;;;8.60;98.00;;;;;;5072930;28;20464;-70
2022/11/02 07:26:34;;;;;;;4.40;2.30;;;8.70;98.00;;;;;;5072929;28;20517;-70
2022/11/02 07:29:01;;;;;;;3.47;1.57;;;8.80;98.00;;;;;;5072799;28;20484;-71
2022/11/02 07:31:31;;;;;;;2.40;2.03;;;9.10;98.00;;;;;;5072789;28;20468;-70
2022/11/02 07:33:58;;;;;;;2.40;1.60;;;9.20;98.00;;;;;;5072798;28;21108;-70
2022/11/02 07:36:25;;;;;;;3.00;2.10;;;9.20;98.00;;;;;;5071565;28;20456;-70
2022/11/02 07:38:56;;;;;;;2.70;1.87;;;9.50;98.00;;;;;;5072554;28;20451;-70
2022/11/02 07:41:23;;;;;;;3.53;2.20;;;9.60;98.00;;;;;;5072692;28;20478;-70
2022/11/02 07:43:50;;;;;;;2.37;1.60;;;9.60;98.00;;;;;;5072260;28;20507;-71
2022/11/02 07:46:18;;;;;;;2.73;1.93;;;9.70;98.00;;;;;;5072707;28;20462;-70
2022/11/02 07:48:46;;;;;;;2.00;1.73;;;9.80;98.00;;;;;;5072660;28;20561;-70
2022/11/02 07:51:17;;;;;;;5.80;2.50;;;9.90;98.00;;;;;;5072564;28;20454;-70
2022/11/02 07:53:44;;;;;;;3.73;2.20;;;10.00;98.00;;;;;;5072320;28;20866;-70
2022/11/02 07:56:13;;;;;;;1.70;1.63;;;10.30;98.00;;;;;;5071154;28;20455;-70
2022/11/02 07:58:40;;;;;;;3.10;2.03;;;10.40;98.00;;;;;;5072158;28;20449;-70
2022/11/02 08:01:08;;;;;;;3.23;1.97;;;10.40;98.00;;;;;;5072092;28;20456;-70
2022/11/02 08:03:35;;;;;;;7.87;2.47;;;10.40;98.00;;;;;;5072017;28;20467;-70
2022/11/02 08:06:02;;;;;;;3.60;1.90;;;10.40;98.00;;;;;;5072057;28;20869;-70
2022/11/02 08:08:30;;;;;;;4.00;2.07;;;10.40;98.00;;;;;;5072017;28;20544;-70
2022/11/02 08:11:04;;;;;;;4.60;2.23;;;10.50;98.00;;;;;;5072016;28;20449;-70
2022/11/02 08:13:33;;;;;;;4.27;2.20;;;10.50;98.00;;;;;;5071628;28;21029;-70
2022/11/02 08:16:00;;;;;;;3.60;1.80;;;10.60;98.00;;;;;;5072035;28;20585;-70
2022/11/02 08:18:28;;;;;;;3.40;2.13;;;10.60;98.00;;;;;;5072016;28;20472;-70
2022/11/02 08:20:56;;;;;;;4.80;2.60;;;10.70;98.00;;;;;;5071958;28;20464;-70
2022/11/02 08:23:24;;;;;;;3.27;2.30;;;10.70;98.00;;;;;;5071904;28;20467;-71
2022/11/02 08:25:53;;;;;;;5.30;1.70;;;10.80;98.00;;;;;;5072019;28;20457;-71
2022/11/02 08:28:22;;;;;;;3.57;2.10;;;10.90;98.00;;;;;;5068356;28;21181;-71
2022/11/02 08:30:52;;;;;;;1.90;1.60;;;11.00;98.00;;;;;;5069688;28;20963;-71
2022/11/02 08:33:20;;;;;;;1.60;1.60;;;11.20;98.00;;;;;;5069242;28;20543;-71
2022/11/02 08:35:48;;;;;;;3.13;2.13;;;11.40;98.00;;;;;;5069624;28;20459;-71
2022/11/02 08:38:16;;;;;;;10.07;2.40;;;11.60;98.00;;;;;;5069286;28;20459;-71
2022/11/02 08:40:43;;;;;;;4.40;1.67;;;11.80;98.00;;;;;;5069375;28;21250;-71
2022/11/02 08:43:14;;;;;;;2.53;2.00;;;11.90;98.00;;;;;;5069590;28;20538;-71
2022/11/02 08:45:43;;;;;;;5.83;1.80;;;12.10;98.00;;;;;;5069126;28;20461;-71
2022/11/02 08:48:11;;;;;;;2.43;1.40;;;12.10;98.00;;;;;;5069172;28;20476;-70
2022/11/02 08:50:38;;;;;;;2.50;1.50;;;12.30;98.00;;;;;;5066469;28;20494;-71
2022/11/02 08:53:07;;;;;;;3.03;1.83;;;12.60;98.00;;;;;;5068905;28;20465;-71
2022/11/02 08:55:34;;;;;;;2.07;1.50;;;12.70;98.00;;;;;;5069103;28;20460;-70
2022/11/02 08:58:05;;;;;;;2.37;1.80;;;12.80;98.00;;;;;;5069059;28;20536;-71
2022/11/02 09:00:34;;;;;;;1.83;1.43;;;13.00;98.00;;;;;;5067437;28;20476;-70
2022/11/02 09:03:04;;;;;;;4.23;2.03;;;13.10;98.00;;;;;;5068973;28;20476;-70
2022/11/02 09:05:34;;;;;;;3.60;1.83;;;13.20;98.00;;;;;;5068720;28;20497;-69
2022/11/02 09:08:02;;;;;;;5.60;2.40;;;13.30;98.00;;;;;;5069102;28;20489;-70
2022/11/02 09:10:31;;;;;;;2.37;1.50;;;13.30;98.00;;;;;;5068624;28;20498;-74
2022/11/02 09:12:59;;;;;;;2.60;1.70;;;13.40;98.00;;;;;;5069162;28;20459;-71
2022/11/02 09:15:27;;;;;;;2.37;1.50;;;13.50;98.00;;;;;;5266786;23;20505;-62
2022/11/02 09:17:54;;;;;;;3.43;1.70;;;13.50;98.00;;;;;;5088110;28;21132;-63
2022/11/02 09:20:22;;;;;;;4.70;1.60;;;13.50;98.00;;;;;;5088304;28;20830;-62
2022/11/02 09:22:50;;;;;;;2.17;1.77;;;13.40;98.00;;;;;;5088394;28;20460;-63
2022/11/02 09:25:18;;;;;;;6.63;2.03;;;13.60;98.00;;;;;;5091285;28;20456;-63
2022/11/02 09:27:45;;;;;;;3.77;1.73;;;13.70;98.00;;;;;;5091988;28;20517;-63
2022/11/02 09:30:13;;;;;;;3.57;1.57;;;13.70;98.00;;;;;;5073874;28;20495;-63
2022/11/02 09:32:40;;;;;;;2.40;1.73;;;13.90;98.00;;;;;;5092435;28;20455;-63
2022/11/02 09:35:09;;;;;;;3.57;1.40;;;13.90;98.00;;;;;;5092125;28;20820;-63
2022/11/02 09:37:37;;;;;;;2.67;1.60;;;13.90;98.00;;;;;;5091947;28;20470;-63
2022/11/02 09:40:08;;;;;;;3.50;1.80;;;13.90;98.00;;;;;;5091827;28;20462;-64
2022/11/02 09:42:43;;;;;;;2.23;1.50;;;13.90;98.00;;;;;;5091730;28;20472;-64
2022/11/02 09:45:15;;;;;;;1.40;1.13;;;14.00;98.00;;;;;;5074407;28;20481;-63
2022/11/02 09:47:46;;;;;;;1.93;1.43;;;14.10;98.00;;;;;;5091645;28;20461;-64
2022/11/02 09:50:18;;;;;;;1.67;1.43;;;14.30;98.00;;;;;;5089251;28;20503;-64
2022/11/02 09:52:50;;;;;;;9.90;1.70;;;14.30;98.00;;;;;;5091507;28;20865;-64
2022/11/02 09:55:24;;;;;;;3.50;1.53;;;14.30;98.00;;;;;;5091516;28;20464;-64
2022/11/02 09:58:00;;;;;;;1.50;1.30;;;14.50;98.00;;;;;;5091655;28;20466;-64
2022/11/02 10:00:33;;;;;;;2.40;1.47;;;14.60;98.00;;;;;;5073435;28;20458;-64
2022/11/02 10:03:09;;;;;;;1.83;1.30;;;14.60;98.00;;;;;;5091370;28;20466;-64
2022/11/02 10:05:42;;;;;;;2.30;1.40;;;14.60;98.00;;;;;;5091362;28;20821;-65
2022/11/02 10:08:24;;;;;;;2.40;1.50;;;14.60;98.00;;;;;;5092061;28;20543;-65
2022/11/02 10:11:05;;;;;;;1.40;1.30;;;14.60;98.00;;;;;;5092186;28;20496;-66
2022/11/02 10:13:38;;;;;;;3.10;1.57;;;14.70;98.00;;;;;;5091712;28;20456;-65
2022/11/02 10:16:09;;;;;;;3.13;1.57;;;14.70;98.00;;;;;;5091542;28;20506;-64
2022/11/02 10:18:38;;;;;;;2.13;1.53;;;14.70;98.00;;;;;;5091685;28;20511;-65
2022/11/02 10:21:08;;;;;;;2.43;1.53;;;14.70;98.00;;;;;;5091777;28;20474;-64
2022/11/02 10:23:39;;;;;;;2.30;1.63;;;14.70;98.00;;;;;;5091612;28;20546;-65
2022/11/02 10:26:14;;;;;;;1.50;1.43;;;14.80;98.00;;;;;;5091230;28;20537;-65
2022/11/02 10:28:47;;;;;;;3.73;1.70;;;14.70;98.00;;;;;;5091427;28;20799;-64
2022/11/02 10:31:23;;;;;;;3.63;1.60;;;14.80;98.00;;;;;;5091185;28;20492;-64
2022/11/02 10:33:50;;;;;;;2.37;1.57;;;15.00;98.00;;;;;;5091132;28;20512;-65
2022/11/02 10:36:29;;;;;;;2.47;1.60;;;15.10;98.00;;;;;;5089855;28;20825;-64
2022/11/02 10:39:07;;;;;;;2.57;1.60;;;15.10;98.00;;;;;;5091022;28;20462;-65
2022/11/02 10:41:54;;;;;;;4.00;1.70;;;15.00;98.00;;;;;;5073118;28;20956;-65
2022/11/02 10:44:51;;;;;;;1.77;1.40;;;15.00;98.00;;;;;;5090853;28;20459;-65
2022/11/02 10:47:20;;;;;;;2.03;1.40;;;15.10;98.00;;;;;;5074508;28;20458;-65
2022/11/02 10:50:20;;;;;;;1.90;1.50;;;15.20;98.00;;;;;;5088793;28;20548;-65
2022/11/02 10:52:47;;;;;;;1.63;1.40;;;15.20;98.00;;;;;;5047701;28;20471;-65
2022/11/02 10:58:11;;;;;;;2.43;1.70;;;15.20;98.00;;;;;;5083645;28;20463;-64
2022/11/02 11:00:47;;;;;;;2.93;1.60;;;15.30;98.00;;;;;;5090517;28;20463;-66
2022/11/02 11:03:19;;;;;;;2.17;1.43;;;15.50;98.00;;;;;;5074573;28;20452;-64
2022/11/02 11:05:59;;;;;;;1.90;1.47;;;15.60;98.00;;;;;;5090799;28;20470;-64
2022/11/02 11:08:37;;;;;;;1.60;1.40;;;15.70;98.00;;;;;;5090729;28;20498;-64
2022/11/02 11:11:17;;;;;;;1.80;1.40;;;15.70;98.00;;;;;;5090988;28;20932;-64
2022/11/02 11:13:54;;;;;;;2.80;1.50;;;15.70;98.00;;;;;;5090808;28;20954;-64
2022/11/02 11:16:31;;;;;;;1.63;1.33;;;15.70;98.00;;;;;;5091581;28;20542;-65
2022/11/02 11:18:59;;;;;;;1.93;1.40;;;15.70;98.00;;;;;;5091804;28;20497;-66
2022/11/02 11:21:39;;;;;;;2.67;1.30;;;15.60;98.00;;;;;;5091845;28;20468;-66
2022/11/02 11:24:20;;;;;;;3.43;1.73;;;15.50;98.00;;;;;;5085231;28;20520;-65
2022/11/02 11:27:01;;;;;;;2.57;1.50;;;15.40;98.00;;;;;;5091909;28;20452;-65
2022/11/02 11:29:33;;;;;;;1.73;1.50;;;15.40;98.00;;;;;;5073311;28;20467;-65
2022/11/02 11:32:02;;;;;;;5.67;1.57;;;15.30;98.00;;;;;;5090765;28;20470;-64
2022/11/02 11:34:35;;;;;;;3.73;1.60;;;15.20;98.00;;;;;;5090347;28;20481;-65
2022/11/02 11:37:08;;;;;;;1.87;1.40;;;15.20;98.00;;;;;;5090363;28;20463;-64
2022/11/02 11:39:37;;;;;;;2.27;1.43;;;15.10;98.00;;;;;;5090255;28;20464;-66
2022/11/02 11:42:12;;;;;;;1.40;1.40;;;15.00;98.00;;;;;;5089987;28;20547;-65
2022/11/02 11:44:45;;;;;;;2.10;1.50;;;15.00;98.00;;;;;;5089968;28;20459;-62
2022/11/02 11:47:13;;;;;;;1.57;1.37;;;15.00;98.00;;;;;;5089694;28;20514;-63
2022/11/02 11:49:48;;;;;;;1.77;1.30;;;15.30;98.00;;;;;;5087448;28;20512;-66
2022/11/02 11:52:20;;;;;;;1.30;1.10;;;15.50;98.00;;;;;;5089895;28;20538;-65
2022/11/02 11:54:57;;;;;;;1.47;1.40;;;15.70;98.00;;;;;;5089809;28;20495;-66
2022/11/02 11:57:28;;;;;;;2.50;1.40;;;15.80;98.00;;;;;;5081918;28;20462;-65
2022/11/02 12:00:00;;;;;;;2.13;1.50;;;15.90;98.00;;;;;;5089818;28;20520;-64
2022/11/02 12:02:29;;;;;;;2.13;1.63;;;16.00;98.00;;;;;;5089628;28;21048;-65
2022/11/02 12:05:02;;;;;;;1.43;1.23;;;16.20;98.00;;;;;;5089668;28;21033;-65
2022/11/02 12:07:59;;;;;;;2.07;1.60;;;16.00;98.00;;;;;;5089632;28;20616;-65
2022/11/02 12:10:51;;;;;;;1.97;1.40;;;16.30;98.00;;;;;;5089572;28;20487;-65
2022/11/02 12:13:29;;;;;;;1.30;1.10;;;17.10;98.00;;;;;;5089564;28;20454;-65
2022/11/02 12:16:13;;;;;;;1.40;1.20;;;17.50;98.00;;;;;;5072792;28;20471;-65
2022/11/02 12:18:52;;;;;;;2.37;1.20;;;17.90;98.00;;;;;;5082812;28;20468;-65
2022/11/02 12:21:35;;;;;;;1.83;1.40;;;18.00;98.00;;;;;;5089515;28;20857;-65
2022/11/02 12:24:14;;;;;;;2.47;1.40;;;17.80;98.00;;;;;;5089191;28;20459;-65
2022/11/02 12:26:54;;;;;;;14.00;1.40;;;17.40;98.00;;;;;;5089460;28;20452;-65
2022/11/02 12:29:38;;;;;;;4.23;1.40;;;17.00;98.00;;;;;;5089332;28;20456;-65
2022/11/02 12:32:17;;;;;;;1.60;1.30;;;16.80;98.00;;;;;;5081260;28;20464;-65
2022/11/02 12:35:06;;;;;;;3.37;1.50;;;17.00;98.00;;;;;;5088934;28;20468;-64
2022/11/02 12:37:44;;;;;;;1.63;1.30;;;17.30;98.00;;;;;;5089226;28;20545;-64
2022/11/02 12:40:26;;;;;;;1.60;1.47;;;17.10;98.00;;;;;;5089167;28;20493;-64
2022/11/02 12:43:03;;;;;;;2.80;1.40;;;17.10;98.00;;;;;;5089264;28;20513;-64
2022/11/02 12:45:39;;;;;;;2.03;1.20;;;17.10;98.00;;;;;;5089136;28;20512;-65
2022/11/02 12:48:08;;;;;;;2.47;1.43;;;17.00;98.00;;;;;;5089644;28;20459;-65
2022/11/02 12:50:50;;;;;;;6.63;1.80;;;17.30;98.00;;;;;;5086673;28;20519;-65
2022/11/02 12:53:34;;;;;;;1.43;1.20;;;17.20;98.00;;;;;;5081835;28;20476;-65
2022/11/02 12:56:03;;;;;;;1.70;1.30;;;17.00;98.00;;;;;;5088607;28;20534;-66
2022/11/02 12:58:33;;;;;;;1.70;1.40;;;16.60;98.00;;;;;;5088807;28;20638;-65
2022/11/02 13:01:06;;;;;;;1.50;1.30;;;16.30;98.00;;;;;;5093215;28;20468;-65
2022/11/02 13:03:42;;;;;;;4.80;1.60;;;16.30;98.00;;;;;;5093133;28;20466;-66
2022/11/02 13:06:15;;;;;;;4.83;1.90;;;16.20;98.00;;;;;;5095412;28;20451;-65
2022/11/02 13:08:47;;;;;;;4.40;2.03;;;16.00;98.00;;;;;;5095785;28;20456;-65
2022/11/02 13:11:18;;;;;;;3.40;2.00;;;15.90;98.00;;;;;;5095956;28;20540;-65
2022/11/02 13:13:49;;;;;;;2.57;1.50;;;15.90;98.00;;;;;;5096001;28;20537;-65
2022/11/02 13:16:20;;;;;;;1.63;1.30;;;15.90;98.00;;;;;;5095745;28;20469;-65
2022/11/02 13:18:53;;;;;;;3.97;1.40;;;15.70;98.00;;;;;;5095531;28;20475;-65
2022/11/02 13:21:29;;;;;;;1.60;1.13;;;15.50;98.00;;;;;;5095278;28;20459;-65
2022/11/02 13:23:59;;;;;;;2.73;1.60;;;15.40;98.00;;;;;;5095384;28;20462;-66
2022/11/02 13:26:29;;;;;;;3.20;1.87;;;15.20;98.00;;;;;;5095323;28;20798;-66
2022/11/02 13:29:04;;;;;;;7.17;1.73;;;15.20;98.00;;;;;;5077756;28;20984;-65